Little Rock Air Force Base, Arkansas
Current Conditions -  °F | °C
As of 3:58 AM on Sunday 25 Jan 2015 (Local Time) from KLRF Reporting Station
Broken Clouds Broken Clouds  
Wind Chill: 39°   Ceiling: 19000
Heat Index: 42°   Visibility: 10mi
Dew Point: 35°   Wind: 6mph
Humidity: 74%   Direction: 210°SSW
Pressure: 29.82"   Gusts: NA
Location:  34.9074°N, 92.1397°W
Report Text: KLRF 250958Z AUTO 21005KT 10SM BKN190 06/01 A2982 RMK AO2 SLP101 T00570014
Loading
Personal Weather Stations






























Interactive Weather Map New forecast layout! Learn more

10-Day Weather Forecast

Advertisements
Track Severe Weather on mobile